createdAt,value
2022-12-25T00:01:22.457Z,6.58
2022-12-25T00:03:55.057Z,6.50
2022-12-25T00:06:27.051Z,6.43
2022-12-25T00:08:58.697Z,6.37
2022-12-25T00:11:30.378Z,6.37
2022-12-25T00:14:01.984Z,6.36
2022-12-25T00:16:33.718Z,6.35
2022-12-25T00:19:05.673Z,6.33
2022-12-25T00:21:37.404Z,6.31
2022-12-25T00:24:10.507Z,6.32
2022-12-25T00:26:42.130Z,6.24
2022-12-25T00:29:14.818Z,6.22
2022-12-25T00:31:46.601Z,6.23
2022-12-25T00:34:18.334Z,6.23
2022-12-25T00:36:52.862Z,6.24
2022-12-25T00:39:24.509Z,6.24
2022-12-25T00:42:13.839Z,6.21
2022-12-25T00:44:45.471Z,6.18
2022-12-25T00:47:18.062Z,6.17
2022-12-25T00:49:49.805Z,6.15
2022-12-25T00:52:21.539Z,6.14
2022-12-25T00:54:53.182Z,6.12
2022-12-25T00:57:25.843Z,6.10
2022-12-25T00:59:57.427Z,6.09
2022-12-25T01:02:29.322Z,6.06
2022-12-25T01:05:01.091Z,6.03
2022-12-25T01:07:32.773Z,5.99
2022-12-25T01:10:23.461Z,5.94
2022-12-25T01:12:55.115Z,5.88
2022-12-25T01:15:26.937Z,5.86
2022-12-25T01:18:00.669Z,5.86
2022-12-25T01:20:37.820Z,5.86
2022-12-25T01:23:08.330Z,5.87
2022-12-25T01:25:40.346Z,5.85
2022-12-25T01:28:11.994Z,5.85
2022-12-25T01:30:50.491Z,5.85
2022-12-25T01:33:22.233Z,5.86
2022-12-25T01:35:53.866Z,5.87
2022-12-25T01:38:25.596Z,5.88
2022-12-25T01:40:57.469Z,5.83
2022-12-25T01:43:32.581Z,5.83
2022-12-25T01:46:05.250Z,5.80
2022-12-25T01:48:39.586Z,5.75
2022-12-25T01:51:21.567Z,5.71
2022-12-25T01:53:53.915Z,5.72
2022-12-25T01:56:27.251Z,5.76
2022-12-25T01:59:00.443Z,5.76
2022-12-25T02:01:32.346Z,5.80
2022-12-25T02:04:10.527Z,5.84
2022-12-25T02:06:42.585Z,5.86
2022-12-25T02:09:15.172Z,5.88
2022-12-25T02:11:58.053Z,5.91
2022-12-25T02:14:33.247Z,5.86
2022-12-25T02:17:12.503Z,5.78
2022-12-25T02:20:13.062Z,5.80
2022-12-25T02:22:57.333Z,5.82
2022-12-25T02:25:44.335Z,5.82
2022-12-25T02:28:22.572Z,5.85
2022-12-25T02:30:57.633Z,5.84
2022-12-25T02:33:55.174Z,5.84
2022-12-25T02:36:33.624Z,5.85
2022-12-25T02:39:32.300Z,5.87
2022-12-25T02:42:07.939Z,5.90
2022-12-25T02:45:03.180Z,5.93
2022-12-25T02:47:54.363Z,5.95
2022-12-25T02:50:49.759Z,6.00
2022-12-25T02:53:42.437Z,6.02
2022-12-25T02:56:35.574Z,6.06
2022-12-25T02:59:26.654Z,6.07
2022-12-25T03:02:16.658Z,6.10
2022-12-25T03:05:08.127Z,6.10
2022-12-25T03:07:43.003Z,6.07
2022-12-25T03:10:36.088Z,6.08
2022-12-25T03:13:16.863Z,6.10
2022-12-25T03:16:08.826Z,6.12
2022-12-25T03:18:40.814Z,6.13
2022-12-25T03:21:32.258Z,6.16
2022-12-25T03:24:22.540Z,6.17
2022-12-25T03:26:57.672Z,6.19
2022-12-25T03:29:52.739Z,6.22
2022-12-25T03:32:46.881Z,6.28
2022-12-25T03:35:27.483Z,6.28
2022-12-25T03:38:52.201Z,6.29
2022-12-25T03:41:50.763Z,6.33
2022-12-25T03:45:00.940Z,6.33
2022-12-25T03:47:56.933Z,6.34
2022-12-25T03:50:52.282Z,6.34
2022-12-25T03:53:46.230Z,6.33
2022-12-25T03:56:37.217Z,6.33
2022-12-25T03:59:26.477Z,6.33
2022-12-25T04:02:15.961Z,6.31
2022-12-25T04:05:07.075Z,6.33
2022-12-25T04:07:56.523Z,6.33
2022-12-25T04:10:46.341Z,6.34
2022-12-25T04:13:36.238Z,6.34
2022-12-25T04:16:28.314Z,6.35
2022-12-25T04:19:17.707Z,6.36
2022-12-25T04:22:06.921Z,6.35
2022-12-25T04:24:56.407Z,6.34
2022-12-25T04:27:45.870Z,6.36
2022-12-25T04:30:35.101Z,6.38
2022-12-25T04:33:24.797Z,6.38
2022-12-25T04:36:12.260Z,6.37
2022-12-25T04:38:49.051Z,6.36
2022-12-25T04:41:20.779Z,6.35
2022-12-25T04:43:54.988Z,6.36
2022-12-25T04:46:29.869Z,6.36
2022-12-25T04:49:01.541Z,6.35
2022-12-25T04:51:33.318Z,6.36
2022-12-25T04:54:07.678Z,6.37
2022-12-25T04:56:45.244Z,6.39
2022-12-25T04:59:18.463Z,6.42
2022-12-25T05:01:52.670Z,6.44
2022-12-25T05:04:24.433Z,6.46
2022-12-25T05:06:56.275Z,6.45
2022-12-25T05:09:28.728Z,6.43
2022-12-25T05:12:00.753Z,6.45
2022-12-25T05:14:32.499Z,6.47
2022-12-25T05:17:04.500Z,6.47
2022-12-25T05:19:36.273Z,6.48
2022-12-25T05:22:07.944Z,6.49
2022-12-25T05:24:39.546Z,6.48
2022-12-25T05:27:14.005Z,6.45
2022-12-25T05:29:47.499Z,6.39
2022-12-25T05:32:21.871Z,6.37
2022-12-25T05:34:53.535Z,6.37
2022-12-25T05:37:25.143Z,6.37
2022-12-25T05:39:59.431Z,6.39
2022-12-25T05:42:35.472Z,6.40
2022-12-25T05:45:10.491Z,6.39
2022-12-25T05:47:42.128Z,6.37
2022-12-25T05:50:17.016Z,6.34
2022-12-25T05:52:50.642Z,6.32
2022-12-25T05:55:21.007Z,6.29
2022-12-25T05:57:52.694Z,6.22
2022-12-25T06:00:30.783Z,6.18
2022-12-25T06:03:02.639Z,6.11
2022-12-25T06:05:34.861Z,6.06
2022-12-25T06:08:06.626Z,6.00
2022-12-25T06:10:40.666Z,5.96
2022-12-25T06:13:15.084Z,5.91
2022-12-25T06:15:46.899Z,5.87
2022-12-25T06:18:18.695Z,5.81
2022-12-25T06:20:51.383Z,5.76
2022-12-25T06:23:23.117Z,5.71
2022-12-25T06:25:54.921Z,5.61
2022-12-25T06:28:34.478Z,5.54
2022-12-25T06:31:10.778Z,5.48
2022-12-25T06:33:43.080Z,5.43
2022-12-25T06:36:17.382Z,5.37
2022-12-25T06:38:49.733Z,5.31
2022-12-25T06:41:25.675Z,5.25
2022-12-25T06:44:01.592Z,5.20
2022-12-25T06:46:33.581Z,5.13
2022-12-25T06:49:05.357Z,5.08
2022-12-25T06:51:37.302Z,5.03
2022-12-25T06:54:10.541Z,4.96
2022-12-25T06:56:42.353Z,4.89
2022-12-25T06:59:17.126Z,4.81
2022-12-25T07:01:53.516Z,4.73
2022-12-25T07:04:31.935Z,4.70
2022-12-25T07:07:08.715Z,4.65
2022-12-25T07:09:44.301Z,4.61
2022-12-25T07:12:20.973Z,4.57
2022-12-25T07:14:54.580Z,4.52
2022-12-25T07:17:24.949Z,4.47
2022-12-25T07:19:57.239Z,4.41
2022-12-25T07:22:31.191Z,4.39
2022-12-25T07:25:02.841Z,4.36
2022-12-25T07:27:34.555Z,4.33
2022-12-25T07:30:08.042Z,4.30
2022-12-25T07:32:39.633Z,4.24
2022-12-25T07:35:12.004Z,4.23
2022-12-25T07:37:43.928Z,4.22
2022-12-25T07:40:16.154Z,4.22
2022-12-25T07:42:47.803Z,4.21
2022-12-25T07:45:19.638Z,4.17
2022-12-25T07:47:53.855Z,4.18
2022-12-25T07:50:26.821Z,4.18
2022-12-25T07:52:59.487Z,4.21
2022-12-25T07:55:31.219Z,4.23
2022-12-25T07:58:02.856Z,4.25
2022-12-25T08:00:34.547Z,4.27
2022-12-25T08:03:06.673Z,4.29
2022-12-25T08:05:38.760Z,4.31
2022-12-25T08:08:10.611Z,4.36
2022-12-25T08:10:47.653Z,4.39
2022-12-25T08:13:19.264Z,4.42
2022-12-25T08:15:50.943Z,4.47
2022-12-25T08:18:29.509Z,4.51
2022-12-25T08:21:05.176Z,4.56
2022-12-25T08:23:38.685Z,4.63
2022-12-25T08:26:12.901Z,4.70
2022-12-25T08:28:44.637Z,4.76
2022-12-25T08:31:23.559Z,4.85
2022-12-25T08:33:57.032Z,4.96
2022-12-25T08:36:28.780Z,5.05
2022-12-25T08:39:03.253Z,5.14
2022-12-25T08:41:36.891Z,5.20
2022-12-25T08:44:08.887Z,5.27
2022-12-25T08:46:40.863Z,5.41
2022-12-25T08:49:12.686Z,5.57
2022-12-25T08:51:46.850Z,5.72
2022-12-25T08:54:18.682Z,5.86
2022-12-25T08:56:51.368Z,6.01
2022-12-25T08:59:23.353Z,6.14
2022-12-25T09:01:55.118Z,6.28
2022-12-25T09:04:27.052Z,6.40
2022-12-25T09:06:58.781Z,6.47
2022-12-25T09:09:31.533Z,6.53
2022-12-25T09:12:03.337Z,6.61
2022-12-25T09:14:35.091Z,6.64
2022-12-25T09:17:06.725Z,6.73
2022-12-25T09:19:38.409Z,6.79
2022-12-25T09:22:10.100Z,6.87
2022-12-25T09:24:43.758Z,6.97
2022-12-25T09:27:14.069Z,7.06
2022-12-25T09:29:45.788Z,7.13
2022-12-25T09:32:17.399Z,7.16
2022-12-25T09:34:49.138Z,7.17
2022-12-25T09:37:20.856Z,7.23
2022-12-25T09:39:52.572Z,7.27
2022-12-25T09:42:26.435Z,7.36
2022-12-25T09:45:01.960Z,7.46
2022-12-25T09:47:37.044Z,7.49
2022-12-25T09:50:16.290Z,7.55
2022-12-25T09:52:54.082Z,7.61
2022-12-25T09:55:27.749Z,7.56
2022-12-25T09:57:59.818Z,7.54
2022-12-25T10:00:38.208Z,7.55
2022-12-25T10:03:26.304Z,7.59
2022-12-25T10:06:12.070Z,7.64
2022-12-25T10:09:13.968Z,7.64
2022-12-25T10:12:07.635Z,7.62
2022-12-25T10:14:51.686Z,7.64
2022-12-25T10:17:27.448Z,7.64
2022-12-25T10:20:12.347Z,7.63
2022-12-25T10:22:47.686Z,7.61
2022-12-25T10:25:22.394Z,7.66
2022-12-25T10:27:57.496Z,7.74
2022-12-25T10:30:30.789Z,7.83
2022-12-25T10:33:02.957Z,7.88
2022-12-25T10:35:34.757Z,7.94
2022-12-25T10:38:13.597Z,7.98
2022-12-25T10:40:59.369Z,8.02
2022-12-25T10:43:38.106Z,8.07
2022-12-25T10:46:15.521Z,8.13
2022-12-25T10:48:51.248Z,8.21
2022-12-25T10:51:34.568Z,8.30
2022-12-25T10:54:20.419Z,8.43
2022-12-25T10:57:00.794Z,8.58
2022-12-25T10:59:35.854Z,8.59
2022-12-25T11:02:21.113Z,8.62
2022-12-25T11:04:59.313Z,8.70
2022-12-25T11:07:31.627Z,8.80
2022-12-25T11:10:06.274Z,8.92
2022-12-25T11:12:43.192Z,8.95
2022-12-25T11:15:36.476Z,8.99
2022-12-25T11:18:20.993Z,9.02
2022-12-25T11:20:54.804Z,8.98
2022-12-25T11:23:25.676Z,8.90
2022-12-25T11:26:03.591Z,8.83
2022-12-25T11:28:39.640Z,8.83
2022-12-25T11:31:15.073Z,8.87
2022-12-25T11:33:53.558Z,8.91
2022-12-25T11:36:33.000Z,8.91
2022-12-25T11:39:15.893Z,8.87
2022-12-25T11:41:49.391Z,8.84
2022-12-25T11:44:31.766Z,8.85
2022-12-25T11:47:13.015Z,8.90
2022-12-25T11:49:52.178Z,8.90
2022-12-25T11:52:30.402Z,8.84
2022-12-25T11:55:06.638Z,8.78
2022-12-25T11:57:41.190Z,8.74
2022-12-25T12:00:17.695Z,8.74
2022-12-25T12:02:56.089Z,8.72
2022-12-25T12:05:33.977Z,8.68
2022-12-25T12:08:07.460Z,8.66
2022-12-25T12:10:55.291Z,8.66
2022-12-25T12:13:41.525Z,8.69
2022-12-25T12:16:13.401Z,8.70
2022-12-25T12:18:50.272Z,8.70
2022-12-25T12:21:25.788Z,8.73
2022-12-25T12:24:02.390Z,8.73
2022-12-25T12:26:38.188Z,8.78
2022-12-25T12:29:25.429Z,8.82
2022-12-25T12:32:02.321Z,8.84
2022-12-25T12:34:42.679Z,8.83
2022-12-25T12:37:25.135Z,8.83
2022-12-25T12:39:58.156Z,8.86
2022-12-25T12:42:32.720Z,8.88
2022-12-25T12:45:17.140Z,8.87
2022-12-25T12:47:51.196Z,8.81
2022-12-25T12:50:40.867Z,8.78
2022-12-25T12:53:32.044Z,8.73
2022-12-25T12:56:16.385Z,8.69
2022-12-25T12:58:51.117Z,8.65
2022-12-25T13:01:38.482Z,8.63
2022-12-25T13:04:37.252Z,8.61
2022-12-25T13:07:18.908Z,8.57
2022-12-25T13:10:03.799Z,8.54
2022-12-25T13:12:35.783Z,8.51
2022-12-25T13:15:15.286Z,8.48
2022-12-25T13:17:50.029Z,8.46
2022-12-25T13:20:32.254Z,8.45
2022-12-25T13:23:13.562Z,8.45
2022-12-25T13:25:52.316Z,8.42
2022-12-25T13:28:29.759Z,8.39
2022-12-25T13:31:07.192Z,8.37
2022-12-25T13:33:40.175Z,8.36
2022-12-25T13:36:15.059Z,8.33
2022-12-25T13:38:49.344Z,8.31
2022-12-25T13:41:42.102Z,8.28
2022-12-25T13:44:21.174Z,8.24
2022-12-25T13:46:53.138Z,8.23
2022-12-25T13:49:25.834Z,8.20
2022-12-25T13:52:12.302Z,8.16
2022-12-25T13:54:58.052Z,8.15
2022-12-25T13:57:34.598Z,8.09
2022-12-25T14:00:09.275Z,7.99
2022-12-25T14:02:41.884Z,7.92
2022-12-25T14:05:28.335Z,7.86
2022-12-25T14:08:03.256Z,7.78
2022-12-25T14:10:39.127Z,7.72
2022-12-25T14:13:15.668Z,7.69
2022-12-25T14:15:49.067Z,7.63
2022-12-25T14:18:22.673Z,7.62
2022-12-25T14:21:03.655Z,7.59
2022-12-25T14:23:42.986Z,7.58
2022-12-25T14:26:20.007Z,7.54
2022-12-25T14:28:54.334Z,7.49
2022-12-25T14:31:29.481Z,7.43
2022-12-25T14:34:04.348Z,7.41
2022-12-25T14:36:36.664Z,7.38
2022-12-25T14:39:25.583Z,7.35
2022-12-25T14:41:57.646Z,7.31
2022-12-25T14:44:34.787Z,7.25
2022-12-25T14:47:22.772Z,7.21
2022-12-25T14:49:54.783Z,7.14
2022-12-25T14:52:29.175Z,7.07
2022-12-25T14:55:03.927Z,7.00
2022-12-25T14:57:39.031Z,6.93
2022-12-25T15:00:25.063Z,6.86
2022-12-25T15:02:59.738Z,6.79
2022-12-25T15:05:34.614Z,6.73
2022-12-25T15:08:23.061Z,6.67
2022-12-25T15:11:01.218Z,6.60
2022-12-25T15:13:36.176Z,6.52
2022-12-25T15:16:10.225Z,6.44
2022-12-25T15:18:45.737Z,6.35
2022-12-25T15:21:26.124Z,6.27
2022-12-25T15:24:00.031Z,6.20
2022-12-25T15:26:33.685Z,6.13
2022-12-25T15:29:03.788Z,6.06
2022-12-25T15:31:37.353Z,5.92
2022-12-25T15:34:09.043Z,5.86
2022-12-25T15:36:40.661Z,5.79
2022-12-25T15:39:12.525Z,5.75
2022-12-25T15:42:01.743Z,5.70
2022-12-25T15:44:33.430Z,5.59
2022-12-25T15:47:05.401Z,5.46
2022-12-25T15:49:37.014Z,5.32
2022-12-25T15:52:12.721Z,5.18
2022-12-25T15:54:44.329Z,5.18
2022-12-25T15:57:20.542Z,5.13
2022-12-25T15:59:52.260Z,5.14
2022-12-25T16:02:24.113Z,5.18
2022-12-25T16:04:56.113Z,5.15
2022-12-25T16:07:29.303Z,5.07
2022-12-25T16:10:01.013Z,5.06
2022-12-25T16:12:32.748Z,5.04
2022-12-25T16:15:04.949Z,4.99
2022-12-25T16:17:36.592Z,4.99
2022-12-25T16:20:10.463Z,5.00
2022-12-25T16:22:42.075Z,5.01
2022-12-25T16:25:19.429Z,4.99
2022-12-25T16:27:51.009Z,4.86
2022-12-25T16:30:22.983Z,4.78
2022-12-25T16:32:54.750Z,4.76
2022-12-25T16:35:26.380Z,4.74
2022-12-25T16:37:58.228Z,4.72
2022-12-25T16:40:30.652Z,4.65
2022-12-25T16:43:02.649Z,4.62
2022-12-25T16:45:38.281Z,4.57
2022-12-25T16:48:10.445Z,4.60
2022-12-25T16:50:42.627Z,4.65
2022-12-25T16:53:14.315Z,4.69
2022-12-25T16:55:46.022Z,4.74
2022-12-25T16:58:17.601Z,4.76
2022-12-25T17:00:49.775Z,4.78
2022-12-25T17:03:21.565Z,4.80
2022-12-25T17:05:53.483Z,4.80
2022-12-25T17:08:25.053Z,4.78
2022-12-25T17:10:57.058Z,4.75
2022-12-25T17:13:28.676Z,4.74
2022-12-25T17:16:00.319Z,4.75
2022-12-25T17:18:32.077Z,4.73
2022-12-25T17:21:04.304Z,4.72
2022-12-25T17:23:37.115Z,4.68
2022-12-25T17:26:09.319Z,4.67
2022-12-25T17:28:40.922Z,4.63
2022-12-25T17:31:14.789Z,4.58
2022-12-25T17:33:46.887Z,4.49
2022-12-25T17:36:20.363Z,4.42
2022-12-25T17:38:52.061Z,4.43
2022-12-25T17:41:23.850Z,4.43
2022-12-25T17:43:55.458Z,4.42
2022-12-25T17:46:28.974Z,4.46
2022-12-25T17:49:00.226Z,4.50
2022-12-25T17:51:32.694Z,4.50
2022-12-25T17:54:04.664Z,4.48
2022-12-25T17:56:36.730Z,4.47
2022-12-25T17:59:12.104Z,4.48
2022-12-25T18:01:43.801Z,4.49
2022-12-25T18:04:15.980Z,4.52
2022-12-25T18:06:47.853Z,4.52
2022-12-25T18:09:20.061Z,4.51
2022-12-25T18:11:52.037Z,4.53
2022-12-25T18:14:24.927Z,4.53
2022-12-25T18:16:57.422Z,4.48
2022-12-25T18:19:29.047Z,4.48
2022-12-25T18:22:00.838Z,4.44
2022-12-25T18:24:32.890Z,4.43
2022-12-25T18:27:04.647Z,4.44
2022-12-25T18:29:36.245Z,4.45
2022-12-25T18:32:08.329Z,4.50
2022-12-25T18:34:40.026Z,4.56
2022-12-25T18:37:11.805Z,4.59
2022-12-25T18:39:43.465Z,4.61
2022-12-25T18:42:33.172Z,4.63
2022-12-25T18:45:05.459Z,4.64
2022-12-25T18:47:37.539Z,4.67
2022-12-25T18:50:11.542Z,4.70
2022-12-25T18:52:47.808Z,4.72
2022-12-25T18:55:25.863Z,4.71
2022-12-25T18:57:57.970Z,4.71
2022-12-25T19:00:29.728Z,4.75
2022-12-25T19:03:02.177Z,4.80
2022-12-25T19:05:34.050Z,4.84
2022-12-25T19:08:06.227Z,4.87
2022-12-25T19:10:39.354Z,4.89
2022-12-25T19:13:12.220Z,4.92
2022-12-25T19:15:45.193Z,4.93
2022-12-25T19:18:16.980Z,4.95
2022-12-25T19:20:48.934Z,4.98
2022-12-25T19:23:21.238Z,4.99
2022-12-25T19:25:53.597Z,5.01
2022-12-25T19:28:27.437Z,5.01
2022-12-25T19:31:02.731Z,5.03
2022-12-25T19:33:35.352Z,5.03
2022-12-25T19:36:10.988Z,5.00
2022-12-25T19:38:43.972Z,4.96
2022-12-25T19:41:17.846Z,4.96
2022-12-25T19:43:52.122Z,4.96
2022-12-25T19:46:26.813Z,4.98
2022-12-25T19:49:04.275Z,4.99
2022-12-25T19:51:39.215Z,5.03
2022-12-25T19:54:15.667Z,5.05
2022-12-25T19:56:48.099Z,5.01
2022-12-25T19:59:19.962Z,4.97
2022-12-25T20:01:52.014Z,4.94
2022-12-25T20:04:24.039Z,4.92
2022-12-25T20:06:55.689Z,4.90
2022-12-25T20:09:27.307Z,4.90
2022-12-25T20:11:58.961Z,4.91
2022-12-25T20:14:30.622Z,4.92
2022-12-25T20:17:02.375Z,4.91
2022-12-25T20:19:34.545Z,4.90
2022-12-25T20:22:06.131Z,4.89
2022-12-25T20:24:37.787Z,4.87
2022-12-25T20:27:09.547Z,4.86
2022-12-25T20:29:41.190Z,4.86
2022-12-25T20:32:13.033Z,4.88
2022-12-25T20:34:44.891Z,4.92
2022-12-25T20:37:16.544Z,4.92
2022-12-25T20:39:48.381Z,4.92
2022-12-25T20:42:20.373Z,4.93
2022-12-25T20:44:52.583Z,4.96
2022-12-25T20:47:24.497Z,5.00
2022-12-25T20:49:56.364Z,5.04
2022-12-25T20:52:28.034Z,5.07
2022-12-25T20:54:59.637Z,5.10
2022-12-25T20:57:31.560Z,5.13
2022-12-25T21:00:05.062Z,5.15
2022-12-25T21:02:37.954Z,5.17
2022-12-25T21:05:12.444Z,5.17
2022-12-25T21:07:44.081Z,5.17
2022-12-25T21:10:15.858Z,5.17
2022-12-25T21:12:47.488Z,5.19
2022-12-25T21:15:19.447Z,5.19
2022-12-25T21:17:51.038Z,5.15
2022-12-25T21:20:22.620Z,5.03
2022-12-25T21:22:54.242Z,4.93
2022-12-25T21:25:25.881Z,4.89
2022-12-25T21:27:57.618Z,4.88
2022-12-25T21:30:29.280Z,4.85
2022-12-25T21:33:18.706Z,4.88
2022-12-25T21:35:50.832Z,4.90
2022-12-25T21:38:22.479Z,4.88
2022-12-25T21:40:54.102Z,4.85
2022-12-25T21:43:25.716Z,4.86
2022-12-25T21:45:57.374Z,4.87
2022-12-25T21:48:28.977Z,4.89
2022-12-25T21:51:23.425Z,4.83
2022-12-25T21:53:55.129Z,4.79
2022-12-25T21:56:28.157Z,4.79
2022-12-25T21:59:01.519Z,4.79
2022-12-25T22:01:35.405Z,4.72
2022-12-25T22:04:09.027Z,4.64
2022-12-25T22:06:58.866Z,4.61
2022-12-25T22:09:30.807Z,4.57
2022-12-25T22:12:20.646Z,4.57
2022-12-25T22:14:56.356Z,4.55
2022-12-25T22:17:47.640Z,4.57
2022-12-25T22:20:21.652Z,4.55
2022-12-25T22:22:53.807Z,4.54
2022-12-25T22:25:25.999Z,4.56
2022-12-25T22:27:58.489Z,4.55
2022-12-25T22:30:31.956Z,4.47
2022-12-25T22:33:03.779Z,4.48
2022-12-25T22:35:35.424Z,4.48
2022-12-25T22:38:07.181Z,4.44
2022-12-25T22:40:39.032Z,4.47
2022-12-25T22:43:10.891Z,4.49
2022-12-25T22:45:42.557Z,4.47
2022-12-25T22:48:14.191Z,4.48
2022-12-25T22:50:45.819Z,4.53
2022-12-25T22:53:17.506Z,4.58
2022-12-25T22:55:49.791Z,4.61
2022-12-25T22:58:21.521Z,4.63
2022-12-25T23:00:53.247Z,4.67
2022-12-25T23:03:25.042Z,4.69
2022-12-25T23:05:57.818Z,4.70
2022-12-25T23:08:29.592Z,4.71
2022-12-25T23:11:05.675Z,4.70
2022-12-25T23:13:55.913Z,4.71
2022-12-25T23:16:27.656Z,4.72
2022-12-25T23:19:17.162Z,4.73
2022-12-25T23:22:18.021Z,4.71
2022-12-25T23:25:07.792Z,4.66
2022-12-25T23:27:39.443Z,4.59
2022-12-25T23:30:13.592Z,4.54
2022-12-25T23:32:46.025Z,4.50
2022-12-25T23:35:17.616Z,4.44
2022-12-25T23:37:52.998Z,4.43
2022-12-25T23:40:24.731Z,4.41
2022-12-25T23:42:56.351Z,4.42
2022-12-25T23:45:27.979Z,4.43
2022-12-25T23:47:59.678Z,4.43
2022-12-25T23:50:31.296Z,4.40
2022-12-25T23:53:02.901Z,4.41
2022-12-25T23:55:36.399Z,4.40
2022-12-25T23:58:08.174Z,4.39
